Time;durP1;ratioP1;P1;durP2;ratioP2;P2;SDS_P1;SDS_P2;PMS_P1;PMS_P2;Temp;Humidity;BMP_temperature;BMP_pressure;BME280_temperature;BME280_humidity;BME280_pressure;Samples;Min_cycle;Max_cycle;Signal;HPM_P1;HPM_P2
2021/10/24 00:00:09;;;;;;;17.83;7.05;;;;;;;;;;5033531;28;20098;-59
2021/10/24 00:02:37;;;;;;;15.30;6.07;;;;;;;;;;5050346;28;20598;-60
2021/10/24 00:05:05;;;;;;;22.90;7.10;;;;;;;;;;5040612;28;20028;-59
2021/10/24 00:07:31;;;;;;;18.30;6.15;;;;;;;;;;5051458;28;20562;-59
2021/10/24 00:13:32;;;;;;;10.25;6.15;;;;;;;;;;5050160;28;20039;-60
2021/10/24 00:16:01;;;;;;;24.05;7.65;;;;;;;;;;5038397;28;20048;-59
2021/10/24 00:18:26;;;;;;;11.43;5.90;;;;;;;;;;5028840;28;20048;-60
2021/10/24 00:20:56;;;;;;;15.20;7.40;;;;;;;;;;5031005;28;20067;-60
2021/10/24 00:23:28;;;;;;;18.52;6.85;;;;;;;;;;5026483;28;21306;-61
2021/10/24 00:25:54;;;;;;;18.42;7.10;;;;;;;;;;5031414;28;20029;-60
2021/10/24 00:28:25;;;;;;;14.15;6.68;;;;;;;;;;5028142;28;20036;-59
2021/10/24 00:30:52;;;;;;;23.10;6.55;;;;;;;;;;5030999;28;20063;-59
2021/10/24 00:33:30;;;;;;;25.58;7.03;;;;;;;;;;5027131;28;20048;-60
2021/10/24 00:36:00;;;;;;;14.70;7.07;;;;;;;;;;5020897;28;20033;-59
2021/10/24 00:38:30;;;;;;;15.95;6.82;;;;;;;;;;5029390;28;20036;-60
2021/10/24 00:40:55;;;;;;;14.10;7.00;;;;;;;;;;5019968;28;20109;-60
2021/10/24 00:43:21;;;;;;;17.05;8.07;;;;;;;;;;5010862;28;20487;-59
2021/10/24 00:45:51;;;;;;;19.20;6.88;;;;;;;;;;5028590;28;20052;-60
2021/10/24 00:48:21;;;;;;;18.10;7.45;;;;;;;;;;5028870;28;20040;-59
2021/10/24 00:50:49;;;;;;;15.98;7.00;;;;;;;;;;5029607;28;20036;-60
2021/10/24 00:53:17;;;;;;;22.42;8.55;;;;;;;;;;5044760;28;20029;-59
2021/10/24 00:55:47;;;;;;;22.35;7.57;;;;;;;;;;5026102;28;20029;-60
2021/10/24 00:58:14;;;;;;;14.02;8.38;;;;;;;;;;5026708;28;20040;-59
2021/10/24 01:00:43;;;;;;;20.63;8.85;;;;;;;;;;5025509;28;20025;-61
2021/10/24 01:03:13;;;;;;;17.48;9.45;;;;;;;;;;5028542;28;20064;-59
2021/10/24 01:05:42;;;;;;;23.85;8.85;;;;;;;;;;5013015;28;20037;-60
2021/10/24 01:08:14;;;;;;;26.95;9.75;;;;;;;;;;5029431;28;20029;-60
2021/10/24 01:10:42;;;;;;;21.42;8.98;;;;;;;;;;5012748;28;20029;-60
2021/10/24 01:13:12;;;;;;;21.65;9.77;;;;;;;;;;5029159;28;20722;-60
2021/10/24 01:15:44;;;;;;;26.42;9.15;;;;;;;;;;5039112;28;20087;-60
2021/10/24 01:18:10;;;;;;;24.50;10.82;;;;;;;;;;5025488;28;20629;-59
2021/10/24 01:20:36;;;;;;;20.75;10.32;;;;;;;;;;5045946;28;20035;-59
2021/10/24 01:23:06;;;;;;;20.85;9.55;;;;;;;;;;5048642;28;20028;-60
2021/10/24 01:25:32;;;;;;;29.00;11.07;;;;;;;;;;5048818;28;20051;-59
2021/10/24 01:28:00;;;;;;;21.52;10.15;;;;;;;;;;5050202;28;21945;-60
2021/10/24 01:30:30;;;;;;;22.25;9.85;;;;;;;;;;5047467;28;20028;-60
2021/10/24 01:32:58;;;;;;;30.05;10.18;;;;;;;;;;5047596;28;20036;-60
2021/10/24 01:35:23;;;;;;;26.50;9.18;;;;;;;;;;5025922;28;20035;-60
2021/10/24 01:37:50;;;;;;;21.30;9.75;;;;;;;;;;5049472;28;20025;-59
2021/10/24 01:40:20;;;;;;;28.00;9.63;;;;;;;;;;5042630;28;20031;-59
2021/10/24 01:42:48;;;;;;;22.10;9.50;;;;;;;;;;5045562;28;20032;-59
2021/10/24 01:45:17;;;;;;;20.55;10.57;;;;;;;;;;5048617;28;20039;-59
2021/10/24 01:47:43;;;;;;;27.80;9.80;;;;;;;;;;5047068;28;20047;-59
2021/10/24 01:50:13;;;;;;;20.33;8.90;;;;;;;;;;5023995;28;20116;-59
2021/10/24 01:52:42;;;;;;;20.80;9.80;;;;;;;;;;5031877;28;20036;-60
2021/10/24 01:55:08;;;;;;;25.42;10.77;;;;;;;;;;5046681;28;20060;-59
2021/10/24 01:57:42;;;;;;;24.30;9.75;;;;;;;;;;5046747;28;20028;-60
2021/10/24 02:00:07;;;;;;;34.33;11.68;;;;;;;;;;5043096;28;20044;-59
2021/10/24 02:02:36;;;;;;;25.60;10.65;;;;;;;;;;5023482;28;20067;-60
2021/10/24 02:05:06;;;;;;;22.92;10.18;;;;;;;;;;5044647;28;20068;-60
2021/10/24 02:07:34;;;;;;;17.92;9.27;;;;;;;;;;5043801;28;20035;-60
2021/10/24 02:10:02;;;;;;;19.00;9.40;;;;;;;;;;5031220;28;20071;-59
2021/10/24 02:12:30;;;;;;;21.88;9.75;;;;;;;;;;5047730;28;20127;-58
2021/10/24 02:14:55;;;;;;;19.27;9.60;;;;;;;;;;5045012;28;20045;-60
2021/10/24 02:17:21;;;;;;;23.10;9.63;;;;;;;;;;5052015;28;20028;-59
2021/10/24 02:19:50;;;;;;;26.23;10.07;;;;;;;;;;5033258;28;20067;-59
2021/10/24 02:22:17;;;;;;;19.50;8.85;;;;;;;;;;5049083;28;20151;-59
2021/10/24 02:24:42;;;;;;;30.95;10.18;;;;;;;;;;5061282;28;20518;-60
2021/10/24 02:27:08;;;;;;;23.23;10.05;;;;;;;;;;5064786;28;20913;-60
2021/10/24 02:29:41;;;;;;;21.58;9.90;;;;;;;;;;5030869;28;20375;-59
2021/10/24 02:32:06;;;;;;;20.17;10.15;;;;;;;;;;5047609;28;20035;-59
2021/10/24 02:34:38;;;;;;;19.13;9.15;;;;;;;;;;5049377;28;21043;-60
2021/10/24 02:37:06;;;;;;;24.02;10.85;;;;;;;;;;5048431;28;20032;-59
2021/10/24 02:39:32;;;;;;;21.58;9.93;;;;;;;;;;5051437;28;20044;-59
2021/10/24 02:41:58;;;;;;;23.13;10.52;;;;;;;;;;5048496;28;20032;-59
2021/10/24 02:44:23;;;;;;;25.75;10.50;;;;;;;;;;5046910;28;20035;-60
2021/10/24 02:46:52;;;;;;;27.83;11.18;;;;;;;;;;5048545;28;21974;-59
2021/10/24 02:49:20;;;;;;;25.58;11.88;;;;;;;;;;5034883;28;20081;-60
2021/10/24 02:51:49;;;;;;;34.45;12.95;;;;;;;;;;5062101;28;20670;-59
2021/10/24 02:54:19;;;;;;;27.52;12.18;;;;;;;;;;5048719;28;20035;-61
2021/10/24 02:56:45;;;;;;;25.38;11.68;;;;;;;;;;5045375;28;20036;-59
2021/10/24 02:59:13;;;;;;;27.65;12.18;;;;;;;;;;5047315;28;22017;-60
2021/10/24 03:01:44;;;;;;;26.88;13.18;;;;;;;;;;5031741;28;20059;-60
2021/10/24 03:04:11;;;;;;;35.90;13.18;;;;;;;;;;5044973;28;20233;-59
2021/10/24 03:06:37;;;;;;;29.27;11.93;;;;;;;;;;5021677;28;20017;-60
2021/10/24 03:09:05;;;;;;;32.50;13.13;;;;;;;;;;5038472;28;20033;-59
2021/10/24 03:11:33;;;;;;;27.48;12.15;;;;;;;;;;5048228;28;20028;-60
2021/10/24 03:14:02;;;;;;;27.77;13.07;;;;;;;;;;5048531;28;20024;-60
2021/10/24 03:16:27;;;;;;;33.53;12.95;;;;;;;;;;5010638;28;20064;-59
2021/10/24 03:18:53;;;;;;;29.95;11.70;;;;;;;;;;5003211;28;20041;-59
2021/10/24 03:21:18;;;;;;;31.25;13.73;;;;;;;;;;5007299;28;20044;-58
2021/10/24 03:23:44;;;;;;;35.50;12.65;;;;;;;;;;5012695;28;20029;-60
2021/10/24 03:26:12;;;;;;;32.08;14.02;;;;;;;;;;5013359;28;20115;-59
2021/10/24 03:28:40;;;;;;;34.42;13.65;;;;;;;;;;4969649;28;20867;-59
2021/10/24 03:31:10;;;;;;;34.03;13.98;;;;;;;;;;5013199;28;20033;-61
2021/10/24 03:33:36;;;;;;;38.88;13.60;;;;;;;;;;5012391;28;20033;-60
2021/10/24 03:36:06;;;;;;;29.75;14.40;;;;;;;;;;5015144;28;20037;-60
2021/10/24 03:38:34;;;;;;;29.55;15.30;;;;;;;;;;5012178;28;20283;-60
2021/10/24 03:41:04;;;;;;;33.28;15.23;;;;;;;;;;5004944;28;20030;-60
2021/10/24 03:43:32;;;;;;;30.27;13.93;;;;;;;;;;5002596;28;21027;-60
2021/10/24 03:45:58;;;;;;;37.45;15.13;;;;;;;;;;5006222;28;20519;-59
2021/10/24 03:48:24;;;;;;;40.35;14.98;;;;;;;;;;5002631;28;20034;-59
2021/10/24 03:50:49;;;;;;;26.55;14.93;;;;;;;;;;5016284;28;20032;-60
2021/10/24 03:53:16;;;;;;;31.92;15.00;;;;;;;;;;5012036;28;20030;-59
2021/10/24 03:55:45;;;;;;;42.88;16.55;;;;;;;;;;5027088;28;20146;-59
2021/10/24 03:58:18;;;;;;;42.33;15.68;;;;;;;;;;5008423;28;20038;-59
2021/10/24 04:00:44;;;;;;;36.90;14.30;;;;;;;;;;5003753;28;20603;-60
2021/10/24 04:03:12;;;;;;;36.10;14.57;;;;;;;;;;5003118;28;20040;-60
2021/10/24 04:05:38;;;;;;;30.30;15.60;;;;;;;;;;5004072;28;20048;-59
2021/10/24 04:08:03;;;;;;;32.80;14.23;;;;;;;;;;5003083;28;20017;-59
2021/10/24 04:10:31;;;;;;;37.58;15.45;;;;;;;;;;5003003;28;20033;-61
2021/10/24 04:13:00;;;;;;;34.25;15.25;;;;;;;;;;5021900;28;20492;-59
2021/10/24 04:15:27;;;;;;;36.92;16.05;;;;;;;;;;5016743;28;20052;-60
2021/10/24 04:17:57;;;;;;;28.08;14.30;;;;;;;;;;5048370;28;20033;-59
2021/10/24 04:20:23;;;;;;;39.45;15.98;;;;;;;;;;5045658;28;20088;-60
2021/10/24 04:22:55;;;;;;;32.50;14.10;;;;;;;;;;5049104;28;20024;-61
2021/10/24 04:25:24;;;;;;;34.30;14.10;;;;;;;;;;5031234;28;20047;-61
2021/10/24 04:27:55;;;;;;;29.65;14.90;;;;;;;;;;5028507;28;21054;-61
2021/10/24 04:30:21;;;;;;;31.33;12.85;;;;;;;;;;5056946;28;20063;-59
2021/10/24 04:32:46;;;;;;;33.83;13.82;;;;;;;;;;5042607;28;20100;-61
2021/10/24 04:35:14;;;;;;;31.58;14.85;;;;;;;;;;5046107;28;20040;-59
2021/10/24 04:37:42;;;;;;;36.85;14.02;;;;;;;;;;5041535;28;20590;-60
2021/10/24 04:40:12;;;;;;;34.67;14.20;;;;;;;;;;5041786;28;20942;-60
2021/10/24 04:42:37;;;;;;;34.90;14.57;;;;;;;;;;5039055;28;20042;-59
2021/10/24 04:45:04;;;;;;;28.52;13.85;;;;;;;;;;5048242;28;20068;-59
2021/10/24 04:47:29;;;;;;;35.28;14.73;;;;;;;;;;5046086;28;20044;-60
2021/10/24 04:49:57;;;;;;;30.65;13.90;;;;;;;;;;5024772;28;20871;-60
2021/10/24 04:52:25;;;;;;;31.45;15.82;;;;;;;;;;5045233;28;20024;-61
2021/10/24 04:54:58;;;;;;;28.08;14.18;;;;;;;;;;5030401;28;20383;-60
2021/10/24 04:57:23;;;;;;;27.05;13.75;;;;;;;;;;5046434;28;20072;-59
2021/10/24 04:59:48;;;;;;;34.95;13.73;;;;;;;;;;5038774;28;20070;-59
2021/10/24 05:02:16;;;;;;;35.65;15.65;;;;;;;;;;5039724;28;20047;-60
2021/10/24 05:04:44;;;;;;;33.60;14.10;;;;;;;;;;5041787;28;20036;-60
2021/10/24 05:07:10;;;;;;;33.25;14.27;;;;;;;;;;5042580;28;20032;-61
2021/10/24 05:09:37;;;;;;;32.45;13.23;;;;;;;;;;5040938;28;22060;-60
2021/10/24 05:12:08;;;;;;;36.40;13.88;;;;;;;;;;5042524;28;20033;-60
2021/10/24 05:14:34;;;;;;;36.38;15.65;;;;;;;;;;5042958;28;20439;-60
2021/10/24 05:17:05;;;;;;;33.15;14.23;;;;;;;;;;5022730;28;20179;-60
2021/10/24 05:19:32;;;;;;;30.95;13.80;;;;;;;;;;5016665;28;20755;-60
2021/10/24 05:21:58;;;;;;;31.13;14.15;;;;;;;;;;5021697;28;20034;-61
2021/10/24 05:24:26;;;;;;;30.20;13.75;;;;;;;;;;5029283;28;20029;-60
2021/10/24 05:26:52;;;;;;;29.70;13.65;;;;;;;;;;5025936;28;21000;-60
2021/10/24 05:29:19;;;;;;;28.80;13.55;;;;;;;;;;5023978;28;20040;-59
2021/10/24 05:31:47;;;;;;;31.33;15.50;;;;;;;;;;5027566;28;20682;-60
2021/10/24 05:34:12;;;;;;;34.60;14.55;;;;;;;;;;5030051;28;20122;-59
2021/10/24 05:36:38;;;;;;;31.65;16.05;;;;;;;;;;5027867;28;20036;-59
2021/10/24 05:39:06;;;;;;;30.15;13.07;;;;;;;;;;5041708;28;20036;-59
2021/10/24 05:41:34;;;;;;;34.25;15.07;;;;;;;;;;4996293;28;20032;-60
2021/10/24 05:44:02;;;;;;;26.00;13.07;;;;;;;;;;5029372;28;20099;-61
2021/10/24 05:46:30;;;;;;;26.55;13.13;;;;;;;;;;5027380;28;20997;-60
2021/10/24 05:48:56;;;;;;;33.42;13.90;;;;;;;;;;5010229;28;20048;-60
2021/10/24 05:51:23;;;;;;;30.00;14.02;;;;;;;;;;5028098;28;20029;-59
2021/10/24 05:53:51;;;;;;;33.75;14.75;;;;;;;;;;5015251;28;20041;-59
2021/10/24 05:56:17;;;;;;;24.27;13.93;;;;;;;;;;5028596;28;20037;-59
2021/10/24 05:58:42;;;;;;;27.90;13.10;;;;;;;;;;5011743;28;20033;-60
2021/10/24 06:01:10;;;;;;;40.88;15.68;;;;;;;;;;5028550;28;20414;-58
2021/10/24 06:03:36;;;;;;;29.65;13.60;;;;;;;;;;5027700;28;20033;-60
2021/10/24 06:06:01;;;;;;;35.40;14.48;;;;;;;;;;5025495;28;20029;-59
2021/10/24 06:08:31;;;;;;;36.78;15.18;;;;;;;;;;5027035;28;20036;-60
2021/10/24 06:11:13;;;;;;;28.08;13.00;;;;;;;;;;5028481;28;20071;-58
2021/10/24 06:13:42;;;;;;;30.40;13.00;;;;;;;;;;5028301;28;20041;-59
2021/10/24 06:16:10;;;;;;;26.75;13.50;;;;;;;;;;5040639;28;20063;-58
2021/10/24 06:18:36;;;;;;;31.58;13.63;;;;;;;;;;5050779;28;20048;-59
2021/10/24 06:21:04;;;;;;;30.90;12.65;;;;;;;;;;5049745;28;20097;-59
2021/10/24 06:23:32;;;;;;;27.90;13.45;;;;;;;;;;5047459;28;20183;-59
2021/10/24 06:25:58;;;;;;;27.10;12.95;;;;;;;;;;5063831;28;21023;-60
2021/10/24 06:28:26;;;;;;;28.17;13.40;;;;;;;;;;5048457;28;20705;-59
2021/10/24 06:30:57;;;;;;;31.92;13.50;;;;;;;;;;5048788;28;20016;-60
2021/10/24 06:33:22;;;;;;;36.50;14.02;;;;;;;;;;5033964;28;20069;-59
2021/10/24 06:35:53;;;;;;;28.52;12.25;;;;;;;;;;5045907;28;20060;-59
2021/10/24 06:38:20;;;;;;;36.25;13.10;;;;;;;;;;5045425;28;20081;-60
2021/10/24 06:40:46;;;;;;;30.23;12.57;;;;;;;;;;5041232;28;21275;-59
2021/10/24 06:43:14;;;;;;;23.17;11.05;;;;;;;;;;5037503;28;20055;-60
2021/10/24 06:45:44;;;;;;;27.13;12.98;;;;;;;;;;5043731;28;20139;-60
2021/10/24 06:48:11;;;;;;;27.27;12.50;;;;;;;;;;5043952;28;20051;-59
2021/10/24 06:50:37;;;;;;;25.48;11.73;;;;;;;;;;5028877;28;20102;-59
2021/10/24 06:53:05;;;;;;;25.55;11.00;;;;;;;;;;5043782;28;20669;-60
2021/10/24 06:55:33;;;;;;;30.00;12.23;;;;;;;;;;5014687;28;20064;-59
2021/10/24 06:57:59;;;;;;;23.13;11.10;;;;;;;;;;5047365;28;20035;-60
2021/10/24 07:00:28;;;;;;;31.92;11.45;;;;;;;;;;5044534;28;20029;-60
2021/10/24 07:02:58;;;;;;;28.42;11.32;;;;;;;;;;5045748;28;20119;-60
2021/10/24 07:05:24;;;;;;;28.75;11.88;;;;;;;;;;5046449;28;20832;-59
2021/10/24 07:07:54;;;;;;;27.30;11.60;;;;;;;;;;5046577;28;20036;-60
2021/10/24 07:10:23;;;;;;;20.75;10.63;;;;;;;;;;5047977;28;20063;-60
2021/10/24 07:12:51;;;;;;;18.48;9.05;;;;;;;;;;5048327;28;20032;-60
2021/10/24 07:15:20;;;;;;;20.13;9.85;;;;;;;;;;5046611;28;20675;-60
2021/10/24 07:17:45;;;;;;;22.52;9.65;;;;;;;;;;5048067;28;20032;-60
2021/10/24 07:20:13;;;;;;;23.65;10.55;;;;;;;;;;5043373;28;20070;-60
2021/10/24 07:22:39;;;;;;;28.63;10.43;;;;;;;;;;5045649;28;20597;-58
2021/10/24 07:25:10;;;;;;;20.08;10.45;;;;;;;;;;5043826;28;20066;-60
2021/10/24 07:27:41;;;;;;;21.45;9.70;;;;;;;;;;5032189;28;20024;-59
2021/10/24 07:30:10;;;;;;;21.30;10.02;;;;;;;;;;5045603;28;20167;-59
2021/10/24 07:32:38;;;;;;;23.42;10.35;;;;;;;;;;5045258;28;20032;-60
2021/10/24 07:35:04;;;;;;;19.02;9.40;;;;;;;;;;5046028;28;20036;-60
2021/10/24 07:37:31;;;;;;;21.48;9.90;;;;;;;;;;5046906;28;20028;-59
2021/10/24 07:40:01;;;;;;;23.42;10.07;;;;;;;;;;5038527;28;20043;-60
2021/10/24 07:42:31;;;;;;;17.15;8.88;;;;;;;;;;5045163;28;20060;-59
2021/10/24 07:45:01;;;;;;;19.80;9.82;;;;;;;;;;5044973;28;20463;-60
2021/10/24 07:47:30;;;;;;;24.35;9.75;;;;;;;;;;5041939;28;20029;-60
2021/10/24 07:49:59;;;;;;;26.02;9.68;;;;;;;;;;5023844;28;20045;-60
2021/10/24 07:52:25;;;;;;;19.13;8.98;;;;;;;;;;5045765;28;20024;-59
2021/10/24 07:54:51;;;;;;;17.10;8.52;;;;;;;;;;5045384;28;20589;-59
2021/10/24 07:57:17;;;;;;;20.70;8.85;;;;;;;;;;5029435;28;21992;-61
2021/10/24 07:59:43;;;;;;;19.38;8.63;;;;;;;;;;5045185;28;20040;-59
2021/10/24 08:02:12;;;;;;;21.48;8.77;;;;;;;;;;5038620;28;20037;-60
2021/10/24 08:04:40;;;;;;;14.85;9.00;;;;;;;;;;5045297;28;20123;-58
2021/10/24 08:07:07;;;;;;;18.13;8.38;;;;;;;;;;5047089;28;20032;-59
2021/10/24 08:09:33;;;;;;;18.33;7.53;;;;;;;;;;5049354;28;20460;-59
2021/10/24 08:12:01;;;;;;;18.20;7.90;;;;;;;;;;5066188;28;20033;-58
2021/10/24 08:14:31;;;;;;;14.35;7.38;;;;;;;;;;5049442;28;20070;-59
2021/10/24 08:16:59;;;;;;;19.17;6.95;;;;;;;;;;5049720;28;20811;-58
2021/10/24 08:19:25;;;;;;;12.07;6.63;;;;;;;;;;5047372;28;20128;-60
2021/10/24 08:21:54;;;;;;;12.95;6.30;;;;;;;;;;5063414;28;20032;-59
2021/10/24 08:24:19;;;;;;;13.70;6.85;;;;;;;;;;5046170;28;20082;-60
2021/10/24 08:26:45;;;;;;;12.65;6.03;;;;;;;;;;5051370;28;20534;-59
2021/10/24 08:29:10;;;;;;;12.45;5.57;;;;;;;;;;5049856;28;20764;-59
2021/10/24 08:31:40;;;;;;;14.15;6.32;;;;;;;;;;5037654;28;20032;-59
2021/10/24 08:34:06;;;;;;;14.10;5.70;;;;;;;;;;5046974;28;20275;-59
2021/10/24 08:36:34;;;;;;;15.35;6.35;;;;;;;;;;5049759;28;20498;-59
2021/10/24 08:39:05;;;;;;;14.70;6.38;;;;;;;;;;5049626;28;20360;-59
2021/10/24 08:41:35;;;;;;;15.25;6.05;;;;;;;;;;5049620;28;20158;-59
2021/10/24 08:44:05;;;;;;;9.43;5.45;;;;;;;;;;5050630;28;20525;-60
2021/10/24 08:46:31;;;;;;;6.97;4.25;;;;;;;;;;5049977;28;20029;-59
2021/10/24 08:48:57;;;;;;;11.52;4.65;;;;;;;;;;5048647;28;20027;-58
2021/10/24 08:51:30;;;;;;;9.10;5.50;;;;;;;;;;5050866;28;20024;-59
2021/10/24 08:53:57;;;;;;;10.80;5.18;;;;;;;;;;5048550;28;20075;-61
2021/10/24 08:56:24;;;;;;;9.98;5.05;;;;;;;;;;5031997;28;20060;-58
2021/10/24 08:58:51;;;;;;;13.15;6.15;;;;;;;;;;5048029;28;20037;-58
2021/10/24 09:01:19;;;;;;;10.68;4.95;;;;;;;;;;5049392;28;20107;-58
2021/10/24 09:04:06;;;;;;;10.48;4.68;;;;;;;;;;5047272;28;20041;-58
2021/10/24 09:06:52;;;;;;;10.50;4.93;;;;;;;;;;5047622;28;20032;-57
2021/10/24 09:09:34;;;;;;;6.95;4.05;;;;;;;;;;5048145;28;20083;-58
2021/10/24 09:12:13;;;;;;;8.95;4.82;;;;;;;;;;5048378;28;20033;-58
2021/10/24 09:14:41;;;;;;;8.75;4.60;;;;;;;;;;5047780;28;20044;-58
2021/10/24 09:17:10;;;;;;;10.63;4.30;;;;;;;;;;5040465;28;22115;-58
2021/10/24 09:19:42;;;;;;;11.80;4.00;;;;;;;;;;5047499;28;20036;-58
2021/10/24 09:22:19;;;;;;;9.20;4.32;;;;;;;;;;5023887;28;20059;-57
2021/10/24 09:25:04;;;;;;;8.60;4.30;;;;;;;;;;5061176;28;20116;-58
2021/10/24 09:27:32;;;;;;;10.02;4.30;;;;;;;;;;5049639;28;20111;-58
2021/10/24 09:30:07;;;;;;;10.75;4.80;;;;;;;;;;5048650;28;20024;-58
2021/10/24 09:32:53;;;;;;;12.98;4.28;;;;;;;;;;5040422;28;20476;-57
2021/10/24 09:35:21;;;;;;;11.15;5.35;;;;;;;;;;5031145;28;20855;-58
2021/10/24 09:37:47;;;;;;;8.05;3.97;;;;;;;;;;5046969;28;20803;-58
2021/10/24 09:40:16;;;;;;;6.00;3.60;;;;;;;;;;5064825;28;20158;-58
2021/10/24 09:42:42;;;;;;;8.23;3.83;;;;;;;;;;5034505;28;20028;-58
2021/10/24 09:45:13;;;;;;;5.65;3.70;;;;;;;;;;5046031;28;20125;-58
2021/10/24 09:47:42;;;;;;;8.35;3.88;;;;;;;;;;5048854;28;20029;-58
2021/10/24 09:50:32;;;;;;;5.03;3.22;;;;;;;;;;5045340;28;20028;-58
2021/10/24 09:53:10;;;;;;;11.23;3.78;;;;;;;;;;5048072;28;20055;-58
2021/10/24 09:55:45;;;;;;;10.10;3.63;;;;;;;;;;5030301;28;20037;-58
2021/10/24 09:58:15;;;;;;;8.93;3.53;;;;;;;;;;5038192;28;20032;-58
2021/10/24 10:00:41;;;;;;;11.63;3.97;;;;;;;;;;5046178;28;20649;-58
2021/10/24 10:03:10;;;;;;;9.88;3.90;;;;;;;;;;5047880;28;20093;-58
2021/10/24 10:05:36;;;;;;;6.50;3.40;;;;;;;;;;5047471;28;22099;-58
2021/10/24 10:08:08;;;;;;;10.02;3.45;;;;;;;;;;5048288;28;20020;-59
2021/10/24 10:10:37;;;;;;;8.25;3.65;;;;;;;;;;5063992;28;20047;-58
2021/10/24 10:13:05;;;;;;;12.63;3.63;;;;;;;;;;5060685;28;20033;-59
2021/10/24 10:15:35;;;;;;;8.02;3.65;;;;;;;;;;5028527;28;20071;-58
2021/10/24 10:18:04;;;;;;;7.60;3.40;;;;;;;;;;5048026;28;20041;-59
2021/10/24 10:20:38;;;;;;;8.70;3.83;;;;;;;;;;5061778;28;20033;-58
2021/10/24 10:23:08;;;;;;;11.98;3.72;;;;;;;;;;5046029;28;20078;-59
2021/10/24 10:25:37;;;;;;;9.55;3.80;;;;;;;;;;5063282;28;20028;-58
2021/10/24 10:28:03;;;;;;;10.18;3.42;;;;;;;;;;5046460;28;20047;-58
2021/10/24 10:30:32;;;;;;;8.38;3.50;;;;;;;;;;5063091;28;20052;-58
2021/10/24 10:32:58;;;;;;;4.85;2.83;;;;;;;;;;5060092;28;20746;-59
2021/10/24 10:35:27;;;;;;;6.22;3.60;;;;;;;;;;5047723;28;20025;-58
2021/10/24 10:37:56;;;;;;;8.20;3.97;;;;;;;;;;5046851;28;20466;-59
2021/10/24 10:40:26;;;;;;;8.10;3.25;;;;;;;;;;5047999;28;20496;-59
2021/10/24 10:43:02;;;;;;;8.20;2.95;;;;;;;;;;5029316;28;20028;-59
2021/10/24 10:45:36;;;;;;;9.15;3.65;;;;;;;;;;5047557;28;20111;-59
2021/10/24 10:48:06;;;;;;;6.70;3.38;;;;;;;;;;5046282;28;20107;-59
2021/10/24 10:50:43;;;;;;;5.32;3.08;;;;;;;;;;5046498;28;20077;-58
2021/10/24 10:53:10;;;;;;;7.20;3.60;;;;;;;;;;5045780;28;20071;-59
2021/10/24 10:55:54;;;;;;;8.20;3.65;;;;;;;;;;5058653;28;20463;-59
2021/10/24 10:58:25;;;;;;;5.85;3.05;;;;;;;;;;5044447;28;20119;-59
2021/10/24 11:00:56;;;;;;;6.55;3.30;;;;;;;;;;5047509;28;20183;-58
2021/10/24 11:03:43;;;;;;;6.10;2.92;;;;;;;;;;5027547;28;20028;-59
2021/10/24 11:06:10;;;;;;;5.32;3.28;;;;;;;;;;5047769;28;20037;-58
2021/10/24 11:08:46;;;;;;;6.90;2.88;;;;;;;;;;5047189;28;20496;-60
2021/10/24 11:11:34;;;;;;;7.05;3.28;;;;;;;;;;5047423;28;20036;-59
2021/10/24 11:14:00;;;;;;;7.05;3.15;;;;;;;;;;5042812;28;20056;-58
2021/10/24 11:16:32;;;;;;;5.53;2.53;;;;;;;;;;5046842;28;20152;-60
2021/10/24 11:18:58;;;;;;;8.23;2.70;;;;;;;;;;5045207;28;20759;-58
2021/10/24 11:21:33;;;;;;;6.95;2.47;;;;;;;;;;5047391;28;20035;-59
2021/10/24 11:24:03;;;;;;;4.57;2.70;;;;;;;;;;5029000;28;20041;-58
2021/10/24 11:26:30;;;;;;;4.55;2.63;;;;;;;;;;5047995;28;20040;-58
2021/10/24 11:28:58;;;;;;;5.95;2.28;;;;;;;;;;5045433;28;20032;-58
2021/10/24 11:31:24;;;;;;;6.05;2.33;;;;;;;;;;5037943;28;20774;-58
2021/10/24 11:33:53;;;;;;;3.60;1.90;;;;;;;;;;5045353;28;20037;-59
2021/10/24 11:36:29;;;;;;;4.35;2.20;;;;;;;;;;5036718;28;20114;-58
2021/10/24 11:38:58;;;;;;;4.60;1.90;;;;;;;;;;5048028;28;20689;-58
2021/10/24 11:41:24;;;;;;;4.93;2.75;;;;;;;;;;5063271;28;20033;-58
2021/10/24 11:43:53;;;;;;;3.95;2.50;;;;;;;;;;5063540;28;20045;-58
2021/10/24 11:46:19;;;;;;;5.70;2.45;;;;;;;;;;5041493;28;20130;-59
2021/10/24 11:48:47;;;;;;;6.05;2.53;;;;;;;;;;5049662;28;20115;-58
2021/10/24 11:51:17;;;;;;;5.10;2.28;;;;;;;;;;5050141;28;20029;-59
2021/10/24 11:53:47;;;;;;;7.65;2.53;;;;;;;;;;5050088;28;20108;-60
2021/10/24 11:56:17;;;;;;;4.60;2.13;;;;;;;;;;5049514;28;20054;-59
2021/10/24 12:01:10;;;;;;;4.63;2.22;;;;;;;;;;5051335;28;20043;-58
2021/10/24 12:03:42;;;;;;;4.93;2.20;;;;;;;;;;5049384;28;20032;-58
2021/10/24 12:06:11;;;;;;;4.20;2.00;;;;;;;;;;5051758;28;20028;-59
2021/10/24 12:08:41;;;;;;;5.82;2.05;;;;;;;;;;5066653;28;20025;-58
2021/10/24 12:11:16;;;;;;;3.42;2.10;;;;;;;;;;5052251;28;20380;-58
2021/10/24 12:13:45;;;;;;;3.35;1.70;;;;;;;;;;5063650;28;20139;-59
2021/10/24 12:16:29;;;;;;;3.78;1.95;;;;;;;;;;5050185;28;20109;-58
2021/10/24 12:18:55;;;;;;;;;;;;;;;;;;5065023;28;20033;-59
2021/10/24 12:21:24;;;;;;;4.95;1.90;;;;;;;;;;5065772;28;20873;-59
2021/10/24 12:23:50;;;;;;;4.53;2.20;;;;;;;;;;5047133;28;20425;-61
2021/10/24 12:26:15;;;;;;;4.80;2.47;;;;;;;;;;5049246;28;20043;-59
2021/10/24 12:28:45;;;;;;;3.78;1.80;;;;;;;;;;5047460;28;20058;-58
2021/10/24 12:31:17;;;;;;;3.08;1.90;;;;;;;;;;5060525;28;20025;-58
2021/10/24 12:33:43;;;;;;;4.70;2.25;;;;;;;;;;5048645;28;20078;-58
2021/10/24 12:36:36;;;;;;;3.72;1.80;;;;;;;;;;5047236;28;20695;-59
2021/10/24 12:39:03;;;;;;;10.23;2.05;;;;;;;;;;5037481;28;20036;-59
2021/10/24 12:41:31;;;;;;;3.08;1.73;;;;;;;;;;5049385;28;20145;-59
2021/10/24 12:43:59;;;;;;;4.13;2.00;;;;;;;;;;5044128;28;20120;-59
2021/10/24 12:46:29;;;;;;;4.88;2.15;;;;;;;;;;5062925;28;20094;-60
2021/10/24 12:48:57;;;;;;;3.20;1.90;;;;;;;;;;5046395;28;20040;-59
2021/10/24 12:51:24;;;;;;;2.67;1.60;;;;;;;;;;5045603;28;20615;-59
2021/10/24 12:53:51;;;;;;;2.53;1.65;;;;;;;;;;5046393;28;20033;-59
2021/10/24 12:56:18;;;;;;;4.63;2.10;;;;;;;;;;5044998;28;20740;-59
2021/10/24 12:58:45;;;;;;;4.13;2.10;;;;;;;;;;5047531;28;20031;-59
2021/10/24 13:01:24;;;;;;;3.92;2.15;;;;;;;;;;5029684;28;21134;-59
2021/10/24 13:03:53;;;;;;;5.00;2.30;;;;;;;;;;5043865;28;20040;-59
2021/10/24 13:06:19;;;;;;;3.22;1.88;;;;;;;;;;5044921;28;20052;-59
2021/10/24 13:08:46;;;;;;;3.83;2.10;;;;;;;;;;5063133;28;20146;-59
2021/10/24 13:11:12;;;;;;;3.33;1.90;;;;;;;;;;5061600;28;20025;-59
2021/10/24 13:13:38;;;;;;;3.25;2.03;;;;;;;;;;5044662;28;20566;-59
2021/10/24 13:16:06;;;;;;;4.95;2.22;;;;;;;;;;5059046;28;20191;-59
2021/10/24 13:18:31;;;;;;;4.28;2.35;;;;;;;;;;5048819;28;20028;-59
2021/10/24 13:21:01;;;;;;;3.40;2.20;;;;;;;;;;5047358;28;20779;-61
2021/10/24 13:23:29;;;;;;;4.05;2.40;;;;;;;;;;5047794;28;20040;-59
2021/10/24 13:25:57;;;;;;;4.40;2.05;;;;;;;;;;5046329;28;20036;-59
2021/10/24 13:28:24;;;;;;;10.50;2.80;;;;;;;;;;5045299;28;20029;-59
2021/10/24 13:30:51;;;;;;;4.75;2.63;;;;;;;;;;5046324;28;20059;-59
2021/10/24 13:33:19;;;;;;;7.32;3.17;;;;;;;;;;5047359;28;20053;-59
2021/10/24 13:35:45;;;;;;;8.05;2.58;;;;;;;;;;5027055;28;21114;-59
2021/10/24 13:38:13;;;;;;;12.82;3.17;;;;;;;;;;5046479;28;20048;-60
2021/10/24 13:40:42;;;;;;;9.15;2.92;;;;;;;;;;5028769;28;20028;-59
2021/10/24 13:43:11;;;;;;;5.45;2.75;;;;;;;;;;5047964;28;20219;-58
2021/10/24 13:45:36;;;;;;;8.43;3.22;;;;;;;;;;5038500;28;20363;-59
2021/10/24 13:48:04;;;;;;;8.93;3.13;;;;;;;;;;5043775;28;20047;-59
2021/10/24 13:50:30;;;;;;;10.95;3.53;;;;;;;;;;5045647;28;20024;-59
2021/10/24 13:52:58;;;;;;;5.63;3.13;;;;;;;;;;5045342;28;20499;-59
2021/10/24 13:55:24;;;;;;;6.18;3.33;;;;;;;;;;5044809;28;20029;-59
2021/10/24 13:57:51;;;;;;;8.48;3.10;;;;;;;;;;5059553;28;20075;-59
2021/10/24 14:00:19;;;;;;;11.93;3.60;;;;;;;;;;5047003;28;20020;-60
2021/10/24 14:02:50;;;;;;;10.32;4.07;;;;;;;;;;5049085;28;20560;-59
2021/10/24 14:05:18;;;;;;;7.63;3.92;;;;;;;;;;5042538;28;20024;-60
2021/10/24 14:07:44;;;;;;;8.35;3.85;;;;;;;;;;5027825;28;20028;-60
2021/10/24 14:10:10;;;;;;;8.90;3.97;;;;;;;;;;5048789;28;20059;-59
2021/10/24 14:12:36;;;;;;;10.00;3.65;;;;;;;;;;5045270;28;20032;-59
2021/10/24 14:15:06;;;;;;;5.45;3.55;;;;;;;;;;5047140;28;20041;-58
2021/10/24 14:17:34;;;;;;;6.72;3.75;;;;;;;;;;5046975;28;20075;-61
2021/10/24 14:20:01;;;;;;;6.70;3.55;;;;;;;;;;5020776;28;20032;-59
2021/10/24 14:22:26;;;;;;;7.07;3.50;;;;;;;;;;5048735;28;20074;-58
2021/10/24 14:24:52;;;;;;;7.28;3.50;;;;;;;;;;5029117;28;20256;-59
2021/10/24 14:27:20;;;;;;;10.23;3.85;;;;;;;;;;5047666;28;20021;-60
2021/10/24 14:29:45;;;;;;;11.02;4.15;;;;;;;;;;5047151;28;20490;-59
2021/10/24 14:32:14;;;;;;;12.40;4.07;;;;;;;;;;5011898;28;20033;-59
2021/10/24 14:34:40;;;;;;;7.93;3.80;;;;;;;;;;5042916;28;20056;-59
2021/10/24 14:37:09;;;;;;;5.70;3.28;;;;;;;;;;5047612;28;20040;-58
2021/10/24 14:39:36;;;;;;;12.80;3.58;;;;;;;;;;5044599;28;20505;-59
2021/10/24 14:42:07;;;;;;;11.80;3.67;;;;;;;;;;5062668;28;20033;-59